Latest Weather Observations for Applethorpe

IDN60801

Issued at 5:32 pm EDT Saturday 3 December 2016 (issued every 30 minutes, with the page automatically refreshed every 10 minutes)

About weather observations | Map of weather stations | Latest weather observations for NSW | Other Formats
Station Details ID: 041175 Name: APPLETHORPE Lat: -28.62 Lon: 151.95 Height: 871.6 m
Data from the previous 72 hours. | See also: Recent months at Applethorpe
Date/Time
EDT
Temp
°C
App
Temp
°C
Dew
Point
°C
Rel
Hum
%
Delta-T
°C
Wind Press
QNH
hPa
Press
MSL
hPa
Rain since
9am
mm
Dir  Spd
km/h
Gust
km/h
Spd
kts
Gust
kts
03/05:30pm 20.3 20.1 16.8 80 2.2 NE 13 44 7 24 1016.7 1012.3 8.2
03/05:26pm 24.0 24.3 16.1 61 5.0 NE 9 33 5 18 1017.0 1012.6 0.2
03/05:00pm 25.8 27.3 16.6 56 5.9 S 4 7 2 4 1014.4 1010.0 0.0
03/04:56pm 26.3 27.4 15.7 52 6.7 S 4 7 2 4 1014.8 1010.3 0.0
03/04:30pm 31.4 30.9 12.5 31 11.6 WNW 7 17 4 9 1014.1 1009.6 0.0
03/04:00pm 32.8 30.7 9.6 24 13.7 W 11 22 6 12 1013.9 1009.4 0.0
03/03:30pm 32.9 30.3 10.8 25 13.3 NNW 15 30 8 16 1014.0 1009.5 0.0
03/03:00pm 33.9 31.1 11.2 25 13.8 N 17 30 9 16 1014.5 1010.1 0.0
03/02:30pm 33.3 32.1 11.7 26 13.2 NNW 9 24 5 13 1015.4 1011.0 0.0
03/02:00pm 33.1 31.4 12.5 28 12.7 NNW 13 22 7 12 1016.3 1011.9 0.0
03/01:30pm 32.3 31.3 13.4 31 11.8 N 11 26 6 14 1016.8 1012.4 0.0
03/01:00pm 32.6 32.1 14.9 34 11.3 NW 11 22 6 12 1017.3 1012.9 0.0
03/12:30pm 30.9 30.5 14.2 36 10.5 NW 9 20 5 11 1017.6 1013.2 0.0
03/12:00pm 31.2 29.9 14.8 37 10.4 N 15 28 8 15 1017.8 1013.4 0.0
03/11:30am 30.1 28.2 14.1 37 10.0 N 17 30 9 16 1018.1 1013.7 0.0
03/11:00am 29.7 28.7 14.6 39 9.5 N 13 24 7 13 1018.2 1013.8 0.0
03/10:30am 29.8 29.8 16.3 44 8.7 N 11 24 6 13 1018.6 1014.2 0.0
03/10:00am 27.4 27.3 15.9 49 7.3 NNE 11 19 6 10 1018.8 1014.4 0.0
03/09:30am 25.9 26.5 15.9 54 6.3 NE 7 13 4 7 1019.0 1014.6 0.0
03/09:00am 25.8 26.8 16.4 56 6.0 NE 6 11 3 6 1019.1 1014.7 0.0
03/08:30am 24.2 25.2 15.4 58 5.5 NE 4 7 2 4 1019.1 1014.7 0.0
03/08:00am 23.6 24.4 14.7 57 5.5 E 4 7 2 4 1019.0 1014.6 0.0
03/07:30am 22.2 22.8 15.2 64 4.3 ENE 6 9 3 5 1018.6 1014.2 0.0
03/07:00am 19.7 21.2 15.8 78 2.4 N 2 7 1 4 1018.2 1013.8 0.0
03/06:30am 18.2 19.7 15.8 86 1.5 E 2 2 1 1 1017.9 1013.5 0.0
03/06:00am 17.6 18.7 15.5 87 1.3 NNE 4 9 2 5 1017.3 1012.9 0.0
03/05:30am 17.6 19.1 15.8 89 1.1 ENE 2 6 1 3 1016.9 1012.5 0.0
03/05:00am 17.5 19.1 15.9 90 1.0 ENE 2 4 1 2 1016.5 1012.1 0.0
03/04:30am 18.0 19.3 16.1 89 1.2 ENE 4 6 2 3 1016.3 1011.9 0.0
03/04:00am 18.3 19.5 16.0 86 1.4 NE 4 6 2 3 1016.3 1011.9 0.0
03/03:30am 18.5 20.3 16.4 87 1.3 N 2 6 1 3 1016.2 1011.7 0.0
03/03:00am 19.0 20.5 16.6 86 1.5 NE 4 7 2 4 1016.3 1011.9 0.0
03/02:30am 18.4 19.8 16.3 87 1.3 NE 4 7 2 4 1016.5 1012.1 0.0
03/02:00am 17.4 18.4 15.3 87 1.3 NE 4 9 2 5 1016.8 1012.4 0.0
03/01:30am 16.5 17.9 14.5 88 1.2 CALM 0 0 0 0 1016.8 1012.4 0.0
03/01:00am 17.1 17.9 13.7 80 2.0 N 2 4 1 2 1017.2 1012.7 0.0
03/12:30am 16.4 17.3 12.8 79 2.1 CALM 0 0 0 0 1017.3 1012.9 0.0
03/12:00am 17.2 18.2 13.1 77 2.4 CALM 0 2 0 1 1017.5 1013.1 0.0
 
Date/Time
EDT
Temp
°C
App
Temp
°C
Dew
Point
°C
Rel
Hum
%
Delta-T
°C
Wind Press
QNH
hPa
Press
MSL
hPa
Rain since
9am
mm
Dir  Spd
km/h
Gust
km/h
Spd
kts
Gust
kts
02/11:30pm 17.0 17.9 12.9 77 2.4 CALM 0 0 0 0 1017.6 1013.2 0.0
02/11:00pm 17.8 18.6 12.4 70 3.1 CALM 0 0 0 0 1017.6 1013.2 0.0
02/10:30pm 18.6 19.5 12.8 69 3.4 CALM 0 2 0 1 1017.4 1013.0 0.0
02/10:00pm 19.6 20.0 12.4 63 4.2 ENE 2 6 1 3 1017.4 1013.0 0.0
02/09:30pm 20.5 21.2 12.3 59 4.8 CALM 0 0 0 0 1017.0 1012.6 0.0
02/09:00pm 21.8 22.4 11.9 53 5.8 CALM 0 0 0 0 1016.6 1012.2 0.0
02/08:30pm 23.6 24.2 11.9 47 6.9 CALM 0 0 0 0 1016.3 1011.9 0.0
02/08:00pm 25.7 25.8 11.5 41 8.4 SW 2 2 1 1 1016.1 1011.6 0.0
02/07:30pm 28.6 26.9 7.6 26 11.8 SSW 6 9 3 5 1015.6 1011.2 0.0
02/07:00pm 30.1 27.5 6.2 22 13.2 SW 9 17 5 9 1015.2 1010.8 0.0
02/06:30pm 31.3 27.9 6.1 20 14.0 SSW 13 20 7 11 1014.8 1010.3 0.0
02/06:00pm 31.8 27.6 5.5 19 14.5 SW 17 28 9 15 1014.4 1010.0 0.0
02/05:30pm 32.6 29.2 6.1 19 14.8 SSW 13 22 7 12 1014.1 1009.6 0.0
02/05:00pm 31.1 27.1 5.1 19 14.2 SW 15 28 8 15 1014.1 1009.6 0.0
02/04:30pm 32.4 28.4 4.8 17 15.1 SW 15 24 8 13 1014.1 1009.6 0.0
02/04:00pm 33.0 29.2 5.7 18 15.2 SSW 15 26 8 14 1014.0 1009.5 0.0
02/03:30pm 32.8 29.1 6.5 19 14.8 SSW 15 30 8 16 1014.1 1009.6 0.0
02/03:00pm 32.8 28.6 5.6 18 15.1 SSW 17 32 9 17 1014.2 1009.8 0.0
02/02:30pm 32.6 27.9 3.1 15 15.7 SW 17 26 9 14 1014.3 1009.9 0.0
02/02:00pm 33.0 29.2 5.7 18 15.2 SW 15 32 8 17 1014.5 1010.1 0.0
02/01:30pm 31.8 27.8 4.9 18 14.7 SW 15 24 8 13 1014.8 1010.3 0.0
02/01:00pm 31.3 28.6 5.5 19 14.2 WSW 9 20 5 11 1014.9 1010.4 0.0
02/12:30pm 30.7 28.9 7.0 22 13.3 SW 6 11 3 6 1015.0 1010.5 0.0
02/12:00pm 30.3 28.1 6.3 22 13.3 WSW 7 13 4 7 1015.2 1010.8 0.0
02/11:30am 29.4 27.1 5.5 22 13.0 SSW 7 17 4 9 1015.3 1010.9 0.0
02/11:00am 28.4 28.1 12.6 37 9.6 S 6 11 3 6 1015.5 1011.1 0.0
02/10:30am 27.1 26.4 11.9 38 9.1 W 7 13 4 7 1015.7 1011.3 0.0
02/10:00am 25.9 25.8 13.4 46 7.6 SW 6 11 3 6 1015.8 1011.4 0.0
02/09:30am 25.2 25.5 13.5 48 7.1 W 4 9 2 5 1015.6 1011.2 0.0
02/09:00am 23.8 23.3 12.6 49 6.7 WNW 7 17 4 9 1015.7 1011.3 0.0
02/08:30am 22.5 22.6 14.5 60 4.9 W 7 15 4 8 1015.7 1011.3 0.0
02/08:00am 20.8 21.3 14.9 69 3.6 NW 6 11 3 6 1015.5 1011.1 0.0
02/07:30am 18.0 19.8 15.4 85 1.6 CALM 0 0 0 0 1015.5 1011.1 0.0
02/07:00am 16.2 17.8 14.9 92 0.8 CALM 0 0 0 0 1015.2 1010.8 0.0
02/06:30am 13.9 15.0 13.4 97 0.3 CALM 0 0 0 0 1015.0 1010.5 0.0
02/06:00am 13.0 13.9 12.8 99 0.1 CALM 0 0 0 0 1014.6 1010.2 0.0
02/05:30am 13.0 13.5 12.8 99 0.1 N 2 4 1 2 1014.2 1009.8 0.0
02/05:00am 12.7 13.5 12.5 99 0.1 CALM 0 0 0 0 1013.9 1009.4 0.0
02/04:30am 13.4 14.4 13.1 98 0.2 CALM 0 0 0 0 1013.6 1009.1 0.0
02/04:00am 13.6 14.3 13.3 98 0.2 NE 2 4 1 2 1013.3 1008.9 0.0
02/03:30am 13.7 14.8 13.4 98 0.2 CALM 0 0 0 0 1013.3 1008.9 0.0
02/03:00am 14.8 15.7 14.1 96 0.4 NE 2 4 1 2 1013.2 1008.8 0.0
02/02:30am 15.2 16.0 14.7 97 0.3 ENE 4 7 2 4 1013.2 1008.8 0.0
02/02:00am 15.6 16.5 15.1 97 0.3 NE 4 6 2 3 1013.5 1009.0 0.0
02/01:30am 16.0 17.1 15.7 98 0.2 ENE 4 6 2 3 1013.6 1009.1 0.0
02/01:00am 16.4 17.3 16.1 98 0.2 NE 6 11 3 6 1013.9 1009.4 0.0
02/12:30am 16.8 17.6 16.3 97 0.3 NE 7 11 4 6 1014.2 1009.8 0.0
02/12:00am 16.9 17.6 16.1 95 0.5 NE 7 11 4 6 1014.3 1009.9 0.0
 
Date/Time
EDT
Temp
°C
App
Temp
°C
Dew
Point
°C
Rel
Hum
%
Delta-T
°C
Wind Press
QNH
hPa
Press
MSL
hPa
Rain since
9am
mm
Dir  Spd
km/h
Gust
km/h
Spd
kts
Gust
kts
01/11:30pm 17.3 18.2 16.0 92 0.8 NE 6 9 3 5 1014.3 1009.9 0.0
01/11:00pm 17.8 18.7 16.0 89 1.1 NE 6 9 3 5 1014.3 1009.9 0.0
01/10:30pm 18.3 19.1 15.9 86 1.5 NE 6 11 3 6 1014.4 1010.0 0.0
01/10:00pm 19.3 19.9 15.2 77 2.5 NE 6 9 3 5 1014.2 1009.8 0.0
01/09:30pm 19.8 19.7 13.8 68 3.6 NE 7 13 4 7 1013.9 1009.4 0.0
01/09:00pm 18.9 18.6 11.6 62 4.2 ENE 4 9 2 5 1013.2 1008.8 0.0
01/08:30pm 19.9 20.3 11.2 57 5.0 CALM 0 0 0 0 1012.6 1008.1 0.0
01/08:00pm 22.1 22.1 9.9 46 6.9 CALM 0 0 0 0 1012.3 1007.8 0.0
01/07:30pm 25.8 24.2 7.8 32 10.0 WSW 6 9 3 5 1011.8 1007.3 0.0
01/07:00pm 27.9 25.7 6.1 25 11.9 WSW 7 13 4 7 1011.3 1006.8 0.0
01/06:30pm 28.6 24.6 4.7 22 12.8 WSW 15 22 8 12 1010.7 1006.2 0.0
01/06:00pm 28.9 24.5 5.0 22 12.9 WSW 17 32 9 17 1010.4 1005.9 0.0
01/05:30pm 28.8 25.6 6.9 25 12.2 SW 13 20 7 11 1010.3 1005.8 0.0
01/05:00pm 28.6 22.9 3.1 19 13.3 W 22 37 12 20 1010.5 1006.0 0.0
01/04:30pm 29.1 26.2 8.2 27 11.9 W 13 20 7 11 1010.4 1005.9 0.0
01/04:00pm 28.5 25.5 7.7 27 11.7 W 13 20 7 11 1010.5 1006.0 0.0
01/03:30pm 28.1 25.5 7.9 28 11.4 W 11 28 6 15 1010.8 1006.3 0.0
01/03:00pm 29.1 26.4 7.4 25 12.2 WNW 11 26 6 14 1011.5 1007.0 0.0
01/02:30pm 27.8 25.7 11.3 35 9.8 NNW 13 24 7 13 1011.7 1007.2 0.0
01/02:00pm 27.3 26.2 11.9 38 9.2 NNW 9 22 5 12 1012.3 1007.8 0.0
01/01:30pm 27.1 24.8 11.7 38 9.2 NNW 15 24 8 13 1012.5 1008.0 0.0
01/01:00pm 26.6 25.1 11.8 39 8.8 NNW 11 26 6 14 1012.8 1008.3 0.0
01/12:30pm 25.9 23.9 12.8 44 7.9 N 15 24 8 13 1013.0 1008.5 0.0
01/12:00pm 26.3 25.0 12.5 42 8.3 NW 11 20 6 11 1013.3 1008.9 0.0
01/11:30am 25.0 23.6 13.3 48 7.1 N 13 24 7 13 1013.7 1009.2 0.0
01/11:00am 23.7 21.3 12.6 49 6.6 N 17 28 9 15 1013.9 1009.4 0.0
01/10:30am 23.4 20.9 12.3 49 6.6 N 17 28 9 15 1014.3 1010.6 0.0
01/10:00am 22.4 20.6 12.0 51 6.1 NNW 13 24 7 13 1015.0 1011.3 0.0
01/09:30am 22.2 20.2 10.2 46 6.8 N 11 20 6 11 1015.5 1011.9 0.0
01/09:00am 20.7 18.4 10.3 51 5.9 N 13 24 7 13 1015.1 1011.4 0.0
01/08:30am 19.7 17.2 10.9 57 5.0 N 15 26 8 14 1015.0 1011.3 0.0
01/08:00am 18.7 17.4 11.1 61 4.3 N 9 17 5 9 1015.1 1011.4 0.0
01/07:30am 16.7 16.6 12.0 74 2.7 NE 4 9 2 5 1014.6 1011.0 0.0
01/07:00am 13.6 13.8 12.0 90 0.9 NE 2 6 1 3 1014.2 1010.5 0.0
01/06:30am 12.9 12.7 11.8 93 0.6 NNE 4 7 2 4 1014.1 1010.4 0.0
01/06:00am 11.1 10.2 10.5 96 0.3 NE 6 7 3 4 1013.7 1010.0 0.0
01/05:30am 11.3 11.5 10.7 96 0.3 CALM 0 0 0 0 1013.7 1010.0 0.0
01/05:00am 11.4 10.9 10.8 96 0.3 NE 4 6 2 3 1013.5 1009.8 0.0
01/04:30am 11.7 11.7 11.2 97 0.3 NE 2 4 1 2 1013.7 1010.0 0.0
01/04:00am 12.0 11.7 11.5 97 0.3 NE 4 4 2 2 1013.6 1009.9 0.0
01/03:30am 12.4 12.6 11.7 95 0.4 NE 2 4 1 2 1013.5 1009.8 0.0
01/03:00am 12.9 12.8 12.2 95 0.4 NE 4 7 2 4 1013.5 1009.8 0.0
01/02:30am 13.2 13.5 12.1 93 0.6 NE 2 6 1 3 1013.6 1009.9 0.0
01/02:00am 13.9 13.6 12.7 92 0.7 NE 6 9 3 5 1013.7 1010.0 0.0
01/01:30am 14.2 13.7 12.6 90 0.9 NE 7 11 4 6 1014.0 1010.3 0.0
01/01:00am 14.0 13.5 12.2 89 1.0 NE 6 7 3 4 1014.2 1010.5 0.0
01/12:30am 14.4 13.8 11.7 84 1.5 ENE 6 13 3 7 1014.5 1010.9 0.0
01/12:00am 14.7 14.5 11.7 82 1.7 NE 4 7 2 4 1014.8 1011.1 0.0
 
Date/Time
EDT
Temp
°C
App
Temp
°C
Dew
Point
°C
Rel
Hum
%
Delta-T
°C
Wind Press
QNH
hPa
Press
MSL
hPa
Rain since
9am
mm
Dir  Spd
km/h
Gust
km/h
Spd
kts
Gust
kts
30/11:30pm 15.2 14.4 11.7 79 2.0 ENE 7 11 4 6 1015.0 1011.3 0.0
30/11:00pm 15.8 14.5 11.4 75 2.5 NE 9 17 5 9 1015.2 1011.5 0.0
30/10:30pm 15.9 15.5 12.4 80 2.0 ESE 6 13 3 7 1016.0 1012.3 0.0
30/10:00pm 15.6 15.6 13.5 87 1.2 ESE 6 11 3 6 1016.0 1012.3 0.0
30/09:30pm 15.6 15.6 13.5 87 1.2 E 6 13 3 7 1015.4 1011.7 0.0
30/09:00pm 15.9 15.5 13.1 83 1.6 E 7 15 4 8 1015.2 1011.5 0.0
30/08:30pm 16.3 15.6 11.9 75 2.5 ENE 7 15 4 8 1015.2 1011.5 0.0
30/08:00pm 16.9 15.3 11.4 70 3.1 E 11 24 6 13 1014.6 1011.0 0.0
30/07:30pm 17.6 15.6 11.4 67 3.5 E 13 35 7 19 1014.8 1011.1 0.0
30/07:00pm 19.1 17.3 12.2 64 4.0 ESE 13 28 7 15 1014.3 1010.6 0.0

Other Formats:

Comma delimited format used in spreadsheet applications
http://www.bom.gov.au/fwo/IDN60801/IDN60801.94553.axf

JavaScript Object Notation format (JSON) in row-major order
http://www.bom.gov.au/fwo/IDN60801/IDN60801.94553.json